sensor_id;sensor_type;location;lat;lon;timestamp;P1;durP1;ratioP1;P2;durP2;ratioP2
1350;SDS011;669;50.206;9.998;2024-03-22T00:02:19;1.70;;;1.60;;
1350;SDS011;669;50.206;9.998;2024-03-22T00:04:45;1.40;;;1.40;;
1350;SDS011;669;50.206;9.998;2024-03-22T00:07:12;1.57;;;1.47;;
1350;SDS011;669;50.206;9.998;2024-03-22T00:09:37;2.23;;;1.67;;
1350;SDS011;669;50.206;9.998;2024-03-22T00:12:05;4.13;;;1.77;;
1350;SDS011;669;50.206;9.998;2024-03-22T00:14:31;1.67;;;1.57;;
1350;SDS011;669;50.206;9.998;2024-03-22T00:16:59;1.57;;;1.47;;
1350;SDS011;669;50.206;9.998;2024-03-22T00:19:25;1.73;;;1.63;;
1350;SDS011;669;50.206;9.998;2024-03-22T00:21:52;1.23;;;1.13;;
1350;SDS011;669;50.206;9.998;2024-03-22T00:24:18;1.47;;;1.37;;
1350;SDS011;669;50.206;9.998;2024-03-22T00:26:45;2.63;;;1.60;;
1350;SDS011;669;50.206;9.998;2024-03-22T00:29:11;1.10;;;1.10;;
1350;SDS011;669;50.206;9.998;2024-03-22T00:31:38;1.53;;;1.43;;
1350;SDS011;669;50.206;9.998;2024-03-22T00:34:05;1.47;;;1.37;;
1350;SDS011;669;50.206;9.998;2024-03-22T00:36:32;1.40;;;1.30;;
1350;SDS011;669;50.206;9.998;2024-03-22T00:38:58;1.73;;;1.63;;
1350;SDS011;669;50.206;9.998;2024-03-22T00:41:25;1.80;;;1.43;;
1350;SDS011;669;50.206;9.998;2024-03-22T00:43:51;2.83;;;2.20;;
1350;SDS011;669;50.206;9.998;2024-03-22T00:46:18;1.50;;;1.40;;
1350;SDS011;669;50.206;9.998;2024-03-22T00:48:44;2.47;;;1.93;;
1350;SDS011;669;50.206;9.998;2024-03-22T00:51:12;1.70;;;1.60;;
1350;SDS011;669;50.206;9.998;2024-03-22T00:53:38;1.90;;;1.73;;
1350;SDS011;669;50.206;9.998;2024-03-22T00:56:05;2.07;;;1.70;;
1350;SDS011;669;50.206;9.998;2024-03-22T00:58:32;1.40;;;1.30;;
1350;SDS011;669;50.206;9.998;2024-03-22T01:00:58;1.10;;;1.10;;
1350;SDS011;669;50.206;9.998;2024-03-22T01:03:24;2.30;;;2.10;;
1350;SDS011;669;50.206;9.998;2024-03-22T01:05:51;2.27;;;2.17;;
1350;SDS011;669;50.206;9.998;2024-03-22T01:08:19;1.60;;;1.50;;
1350;SDS011;669;50.206;9.998;2024-03-22T01:10:45;2.20;;;2.07;;
1350;SDS011;669;50.206;9.998;2024-03-22T01:13:11;1.60;;;1.50;;
1350;SDS011;669;50.206;9.998;2024-03-22T01:15:38;1.50;;;1.40;;
1350;SDS011;669;50.206;9.998;2024-03-22T01:18:04;1.90;;;1.80;;
1350;SDS011;669;50.206;9.998;2024-03-22T01:20:31;4.63;;;2.20;;
1350;SDS011;669;50.206;9.998;2024-03-22T01:22:59;1.80;;;1.70;;
1350;SDS011;669;50.206;9.998;2024-03-22T01:25:27;2.43;;;1.73;;
1350;SDS011;669;50.206;9.998;2024-03-22T01:27:55;2.13;;;1.93;;
1350;SDS011;669;50.206;9.998;2024-03-22T01:30:22;1.20;;;1.20;;
1350;SDS011;669;50.206;9.998;2024-03-22T01:32:49;1.50;;;1.40;;
1350;SDS011;669;50.206;9.998;2024-03-22T01:35:16;2.73;;;2.47;;
1350;SDS011;669;50.206;9.998;2024-03-22T01:37:42;5.43;;;1.90;;
1350;SDS011;669;50.206;9.998;2024-03-22T01:40:09;1.90;;;1.80;;
1350;SDS011;669;50.206;9.998;2024-03-22T01:42:37;2.87;;;2.67;;
1350;SDS011;669;50.206;9.998;2024-03-22T01:45:04;1.60;;;1.50;;
1350;SDS011;669;50.206;9.998;2024-03-22T01:47:31;2.00;;;1.90;;
1350;SDS011;669;50.206;9.998;2024-03-22T01:49:58;2.30;;;2.20;;
1350;SDS011;669;50.206;9.998;2024-03-22T01:52:24;1.67;;;1.57;;
1350;SDS011;669;50.206;9.998;2024-03-22T01:54:51;2.03;;;1.70;;
1350;SDS011;669;50.206;9.998;2024-03-22T01:57:17;1.37;;;1.27;;
1350;SDS011;669;50.206;9.998;2024-03-22T01:59:46;2.90;;;1.37;;
1350;SDS011;669;50.206;9.998;2024-03-22T02:02:14;1.47;;;1.40;;
1350;SDS011;669;50.206;9.998;2024-03-22T02:04:42;1.60;;;1.50;;
1350;SDS011;669;50.206;9.998;2024-03-22T02:07:08;1.60;;;1.50;;
1350;SDS011;669;50.206;9.998;2024-03-22T02:09:35;2.07;;;1.90;;
1350;SDS011;669;50.206;9.998;2024-03-22T02:12:02;1.80;;;1.70;;
1350;SDS011;669;50.206;9.998;2024-03-22T02:14:29;1.70;;;1.57;;
1350;SDS011;669;50.206;9.998;2024-03-22T02:16:57;1.83;;;1.73;;
1350;SDS011;669;50.206;9.998;2024-03-22T02:19:24;1.70;;;1.63;;
1350;SDS011;669;50.206;9.998;2024-03-22T02:21:50;2.17;;;1.90;;
1350;SDS011;669;50.206;9.998;2024-03-22T02:24:18;2.70;;;2.17;;
1350;SDS011;669;50.206;9.998;2024-03-22T02:26:44;1.90;;;1.80;;
1350;SDS011;669;50.206;9.998;2024-03-22T02:29:11;1.70;;;1.60;;
1350;SDS011;669;50.206;9.998;2024-03-22T02:31:37;2.10;;;1.90;;
1350;SDS011;669;50.206;9.998;2024-03-22T02:34:04;1.80;;;1.70;;
1350;SDS011;669;50.206;9.998;2024-03-22T02:36:30;1.70;;;1.60;;
1350;SDS011;669;50.206;9.998;2024-03-22T02:38:57;2.03;;;1.87;;
1350;SDS011;669;50.206;9.998;2024-03-22T02:41:24;1.80;;;1.70;;
1350;SDS011;669;50.206;9.998;2024-03-22T02:43:51;2.00;;;1.73;;
1350;SDS011;669;50.206;9.998;2024-03-22T02:46:17;2.43;;;2.23;;
1350;SDS011;669;50.206;9.998;2024-03-22T02:48:44;2.63;;;2.43;;
1350;SDS011;669;50.206;9.998;2024-03-22T02:51:10;2.30;;;2.10;;
1350;SDS011;669;50.206;9.998;2024-03-22T02:53:37;2.80;;;2.10;;
1350;SDS011;669;50.206;9.998;2024-03-22T02:56:03;4.43;;;2.23;;
1350;SDS011;669;50.206;9.998;2024-03-22T02:58:32;1.93;;;1.83;;
1350;SDS011;669;50.206;9.998;2024-03-22T03:00:57;3.10;;;2.90;;
1350;SDS011;669;50.206;9.998;2024-03-22T03:03:24;2.63;;;2.43;;
1350;SDS011;669;50.206;9.998;2024-03-22T03:05:50;2.80;;;2.17;;
1350;SDS011;669;50.206;9.998;2024-03-22T03:08:18;2.00;;;1.90;;
1350;SDS011;669;50.206;9.998;2024-03-22T03:10:44;1.50;;;1.40;;
1350;SDS011;669;50.206;9.998;2024-03-22T03:13:11;2.70;;;2.50;;
1350;SDS011;669;50.206;9.998;2024-03-22T03:15:38;3.10;;;2.77;;
1350;SDS011;669;50.206;9.998;2024-03-22T03:18:05;4.50;;;2.30;;
1350;SDS011;669;50.206;9.998;2024-03-22T03:20:31;2.57;;;2.37;;
1350;SDS011;669;50.206;9.998;2024-03-22T03:22:58;3.07;;;2.73;;
1350;SDS011;669;50.206;9.998;2024-03-22T03:25:25;2.70;;;2.50;;
1350;SDS011;669;50.206;9.998;2024-03-22T03:27:52;3.00;;;2.50;;
1350;SDS011;669;50.206;9.998;2024-03-22T03:30:18;2.57;;;2.37;;
1350;SDS011;669;50.206;9.998;2024-03-22T03:32:46;2.93;;;2.60;;
1350;SDS011;669;50.206;9.998;2024-03-22T03:35:12;2.53;;;2.33;;
1350;SDS011;669;50.206;9.998;2024-03-22T03:37:39;2.63;;;2.43;;
1350;SDS011;669;50.206;9.998;2024-03-22T03:40:06;3.30;;;2.43;;
1350;SDS011;669;50.206;9.998;2024-03-22T03:42:33;2.60;;;2.40;;
1350;SDS011;669;50.206;9.998;2024-03-22T03:44:59;2.70;;;2.50;;
1350;SDS011;669;50.206;9.998;2024-03-22T03:47:26;8.90;;;3.03;;
1350;SDS011;669;50.206;9.998;2024-03-22T03:49:54;2.63;;;2.47;;
1350;SDS011;669;50.206;9.998;2024-03-22T03:52:21;2.93;;;2.57;;
1350;SDS011;669;50.206;9.998;2024-03-22T03:54:47;3.27;;;3.00;;
1350;SDS011;669;50.206;9.998;2024-03-22T03:57:14;2.43;;;2.23;;
1350;SDS011;669;50.206;9.998;2024-03-22T03:59:40;2.53;;;2.33;;
1350;SDS011;669;50.206;9.998;2024-03-22T04:02:07;2.23;;;2.13;;
1350;SDS011;669;50.206;9.998;2024-03-22T04:04:33;2.40;;;2.20;;
1350;SDS011;669;50.206;9.998;2024-03-22T04:07:01;3.10;;;2.80;;
1350;SDS011;669;50.206;9.998;2024-03-22T04:09:27;2.20;;;2.10;;
1350;SDS011;669;50.206;9.998;2024-03-22T04:11:54;3.47;;;3.17;;
1350;SDS011;669;50.206;9.998;2024-03-22T04:14:24;5.13;;;3.73;;
1350;SDS011;669;50.206;9.998;2024-03-22T04:16:51;7.53;;;4.50;;
1350;SDS011;669;50.206;9.998;2024-03-22T04:19:17;4.50;;;3.37;;
1350;SDS011;669;50.206;9.998;2024-03-22T04:21:43;3.73;;;3.03;;
1350;SDS011;669;50.206;9.998;2024-03-22T04:24:11;3.53;;;3.00;;
1350;SDS011;669;50.206;9.998;2024-03-22T04:26:38;3.23;;;3.00;;
1350;SDS011;669;50.206;9.998;2024-03-22T04:29:04;7.07;;;2.70;;
1350;SDS011;669;50.206;9.998;2024-03-22T04:31:31;3.10;;;2.80;;
1350;SDS011;669;50.206;9.998;2024-03-22T04:33:57;3.70;;;3.40;;
1350;SDS011;669;50.206;9.998;2024-03-22T04:36:24;3.10;;;2.83;;
1350;SDS011;669;50.206;9.998;2024-03-22T04:38:50;2.30;;;2.20;;
1350;SDS011;669;50.206;9.998;2024-03-22T04:41:18;4.07;;;3.67;;
1350;SDS011;669;50.206;9.998;2024-03-22T04:43:45;4.90;;;3.80;;
1350;SDS011;669;50.206;9.998;2024-03-22T04:46:12;3.70;;;3.40;;
1350;SDS011;669;50.206;9.998;2024-03-22T04:48:38;3.70;;;3.30;;
1350;SDS011;669;50.206;9.998;2024-03-22T04:51:05;3.30;;;3.00;;
1350;SDS011;669;50.206;9.998;2024-03-22T04:53:31;3.43;;;3.20;;
1350;SDS011;669;50.206;9.998;2024-03-22T04:55:58;3.53;;;3.23;;
1350;SDS011;669;50.206;9.998;2024-03-22T04:58:25;5.83;;;3.40;;
1350;SDS011;669;50.206;9.998;2024-03-22T05:00:56;3.20;;;2.87;;
1350;SDS011;669;50.206;9.998;2024-03-22T05:03:22;3.40;;;2.90;;
1350;SDS011;669;50.206;9.998;2024-03-22T05:05:49;3.00;;;2.70;;
1350;SDS011;669;50.206;9.998;2024-03-22T05:08:16;3.47;;;3.17;;
1350;SDS011;669;50.206;9.998;2024-03-22T05:10:43;3.50;;;3.20;;
1350;SDS011;669;50.206;9.998;2024-03-22T05:13:09;3.40;;;3.10;;
1350;SDS011;669;50.206;9.998;2024-03-22T05:15:37;6.00;;;4.47;;
1350;SDS011;669;50.206;9.998;2024-03-22T05:18:03;4.20;;;3.67;;
1350;SDS011;669;50.206;9.998;2024-03-22T05:20:31;3.50;;;3.17;;
1350;SDS011;669;50.206;9.998;2024-03-22T05:22:57;3.70;;;3.00;;
1350;SDS011;669;50.206;9.998;2024-03-22T05:25:24;3.17;;;2.87;;
1350;SDS011;669;50.206;9.998;2024-03-22T05:27:51;5.50;;;3.97;;
1350;SDS011;669;50.206;9.998;2024-03-22T05:30:18;4.53;;;3.90;;
1350;SDS011;669;50.206;9.998;2024-03-22T05:32:45;4.73;;;4.13;;
1350;SDS011;669;50.206;9.998;2024-03-22T05:35:12;5.47;;;4.10;;
1350;SDS011;669;50.206;9.998;2024-03-22T05:37:38;6.03;;;4.10;;
1350;SDS011;669;50.206;9.998;2024-03-22T05:40:06;5.80;;;4.20;;
1350;SDS011;669;50.206;9.998;2024-03-22T05:42:34;4.10;;;3.70;;
1350;SDS011;669;50.206;9.998;2024-03-22T05:45:01;5.83;;;4.13;;
1350;SDS011;669;50.206;9.998;2024-03-22T05:47:27;5.03;;;4.37;;
1350;SDS011;669;50.206;9.998;2024-03-22T05:49:57;4.87;;;3.83;;
1350;SDS011;669;50.206;9.998;2024-03-22T05:52:23;5.60;;;4.10;;
1350;SDS011;669;50.206;9.998;2024-03-22T05:54:50;4.60;;;4.17;;
1350;SDS011;669;50.206;9.998;2024-03-22T05:57:16;4.40;;;3.97;;
1350;SDS011;669;50.206;9.998;2024-03-22T05:59:43;6.30;;;4.40;;
1350;SDS011;669;50.206;9.998;2024-03-22T06:02:09;6.20;;;4.30;;
1350;SDS011;669;50.206;9.998;2024-03-22T06:04:36;4.80;;;4.37;;
1350;SDS011;669;50.206;9.998;2024-03-22T06:07:04;5.27;;;3.73;;
1350;SDS011;669;50.206;9.998;2024-03-22T06:09:31;4.67;;;4.17;;
1350;SDS011;669;50.206;9.998;2024-03-22T06:12:02;4.77;;;4.27;;
1350;SDS011;669;50.206;9.998;2024-03-22T06:14:30;6.10;;;5.10;;
1350;SDS011;669;50.206;9.998;2024-03-22T06:16:57;6.07;;;5.17;;
1350;SDS011;669;50.206;9.998;2024-03-22T06:19:24;6.57;;;4.50;;
1350;SDS011;669;50.206;9.998;2024-03-22T06:21:50;6.57;;;4.67;;
1350;SDS011;669;50.206;9.998;2024-03-22T06:24:18;5.00;;;4.30;;
1350;SDS011;669;50.206;9.998;2024-03-22T06:26:44;5.80;;;4.93;;
1350;SDS011;669;50.206;9.998;2024-03-22T06:29:11;5.40;;;4.30;;
1350;SDS011;669;50.206;9.998;2024-03-22T06:31:38;5.53;;;4.50;;
1350;SDS011;669;50.206;9.998;2024-03-22T06:34:05;6.20;;;5.10;;
1350;SDS011;669;50.206;9.998;2024-03-22T06:36:31;6.07;;;5.30;;
1350;SDS011;669;50.206;9.998;2024-03-22T06:38:58;4.73;;;3.93;;
1350;SDS011;669;50.206;9.998;2024-03-22T06:41:27;6.87;;;4.87;;
1350;SDS011;669;50.206;9.998;2024-03-22T06:43:54;9.03;;;5.47;;
1350;SDS011;669;50.206;9.998;2024-03-22T06:46:20;4.93;;;4.53;;
1350;SDS011;669;50.206;9.998;2024-03-22T06:48:48;8.10;;;6.17;;
1350;SDS011;669;50.206;9.998;2024-03-22T06:51:14;6.77;;;5.37;;
1350;SDS011;669;50.206;9.998;2024-03-22T06:53:41;8.40;;;6.30;;
1350;SDS011;669;50.206;9.998;2024-03-22T06:56:07;6.93;;;6.23;;
1350;SDS011;669;50.206;9.998;2024-03-22T06:58:38;7.60;;;5.70;;
1350;SDS011;669;50.206;9.998;2024-03-22T07:01:04;7.93;;;6.13;;
1350;SDS011;669;50.206;9.998;2024-03-22T07:03:31;8.57;;;7.27;;
1350;SDS011;669;50.206;9.998;2024-03-22T07:05:57;8.97;;;6.50;;
1350;SDS011;669;50.206;9.998;2024-03-22T07:08:24;8.60;;;6.17;;
1350;SDS011;669;50.206;9.998;2024-03-22T07:10:50;8.87;;;6.63;;
1350;SDS011;669;50.206;9.998;2024-03-22T07:13:18;6.70;;;5.43;;
1350;SDS011;669;50.206;9.998;2024-03-22T07:15:45;7.00;;;5.40;;
1350;SDS011;669;50.206;9.998;2024-03-22T07:18:12;7.93;;;6.37;;
1350;SDS011;669;50.206;9.998;2024-03-22T07:20:38;7.07;;;6.13;;
1350;SDS011;669;50.206;9.998;2024-03-22T07:23:05;11.17;;;7.80;;
1350;SDS011;669;50.206;9.998;2024-03-22T07:25:31;11.33;;;9.27;;
1350;SDS011;669;50.206;9.998;2024-03-22T07:27:58;8.93;;;7.30;;
1350;SDS011;669;50.206;9.998;2024-03-22T07:30:24;9.17;;;7.37;;
1350;SDS011;669;50.206;9.998;2024-03-22T07:32:53;9.87;;;6.73;;
1350;SDS011;669;50.206;9.998;2024-03-22T07:35:19;13.87;;;8.87;;
1350;SDS011;669;50.206;9.998;2024-03-22T07:37:46;16.37;;;11.60;;
1350;SDS011;669;50.206;9.998;2024-03-22T07:40:12;13.30;;;10.70;;
1350;SDS011;669;50.206;9.998;2024-03-22T07:42:39;13.37;;;9.77;;
1350;SDS011;669;50.206;9.998;2024-03-22T07:45:06;16.50;;;12.13;;
1350;SDS011;669;50.206;9.998;2024-03-22T07:47:34;10.93;;;9.50;;
1350;SDS011;669;50.206;9.998;2024-03-22T07:50:01;16.97;;;11.23;;
1350;SDS011;669;50.206;9.998;2024-03-22T07:52:28;16.70;;;11.37;;
1350;SDS011;669;50.206;9.998;2024-03-22T07:54:54;18.43;;;11.97;;
1350;SDS011;669;50.206;9.998;2024-03-22T07:57:21;12.37;;;9.60;;
1350;SDS011;669;50.206;9.998;2024-03-22T07:59:48;10.83;;;9.10;;
1350;SDS011;669;50.206;9.998;2024-03-22T08:02:15;9.80;;;7.80;;
1350;SDS011;669;50.206;9.998;2024-03-22T08:04:41;14.30;;;10.40;;
1350;SDS011;669;50.206;9.998;2024-03-22T08:07:10;10.50;;;8.33;;
1350;SDS011;669;50.206;9.998;2024-03-22T08:09:36;14.87;;;10.13;;
1350;SDS011;669;50.206;9.998;2024-03-22T08:12:03;15.63;;;10.80;;
1350;SDS011;669;50.206;9.998;2024-03-22T08:14:29;13.50;;;10.17;;
1350;SDS011;669;50.206;9.998;2024-03-22T08:16:56;14.93;;;10.97;;
1350;SDS011;669;50.206;9.998;2024-03-22T08:19:22;16.17;;;11.33;;
1350;SDS011;669;50.206;9.998;2024-03-22T08:21:49;17.03;;;11.93;;
1350;SDS011;669;50.206;9.998;2024-03-22T08:24:18;13.47;;;10.80;;
1350;SDS011;669;50.206;9.998;2024-03-22T08:26:45;15.40;;;12.10;;
1350;SDS011;669;50.206;9.998;2024-03-22T08:29:12;13.90;;;11.43;;
1350;SDS011;669;50.206;9.998;2024-03-22T08:31:40;11.87;;;9.60;;
1350;SDS011;669;50.206;9.998;2024-03-22T08:34:06;10.10;;;7.90;;
1350;SDS011;669;50.206;9.998;2024-03-22T08:36:33;11.83;;;9.37;;
1350;SDS011;669;50.206;9.998;2024-03-22T08:38:59;11.67;;;9.13;;
1350;SDS011;669;50.206;9.998;2024-03-22T08:41:28;10.60;;;8.97;;
1350;SDS011;669;50.206;9.998;2024-03-22T08:43:54;14.80;;;11.30;;
1350;SDS011;669;50.206;9.998;2024-03-22T08:46:20;12.53;;;9.30;;
1350;SDS011;669;50.206;9.998;2024-03-22T08:48:48;13.83;;;10.57;;
1350;SDS011;669;50.206;9.998;2024-03-22T08:51:15;12.67;;;9.80;;
1350;SDS011;669;50.206;9.998;2024-03-22T08:53:41;19.10;;;12.57;;
1350;SDS011;669;50.206;9.998;2024-03-22T08:56:09;17.03;;;11.67;;
1350;SDS011;669;50.206;9.998;2024-03-22T08:58:36;15.60;;;10.83;;
1350;SDS011;669;50.206;9.998;2024-03-22T09:01:03;15.07;;;11.10;;
1350;SDS011;669;50.206;9.998;2024-03-22T09:03:30;13.73;;;10.37;;
1350;SDS011;669;50.206;9.998;2024-03-22T09:05:57;17.40;;;11.53;;
1350;SDS011;669;50.206;9.998;2024-03-22T09:08:23;14.87;;;11.87;;
1350;SDS011;669;50.206;9.998;2024-03-22T09:10:50;17.40;;;10.03;;
1350;SDS011;669;50.206;9.998;2024-03-22T09:13:16;16.50;;;11.30;;
1350;SDS011;669;50.206;9.998;2024-03-22T09:15:45;14.20;;;10.07;;
1350;SDS011;669;50.206;9.998;2024-03-22T09:18:11;13.90;;;10.23;;
1350;SDS011;669;50.206;9.998;2024-03-22T09:20:38;16.80;;;10.83;;
1350;SDS011;669;50.206;9.998;2024-03-22T09:23:04;12.93;;;9.70;;
1350;SDS011;669;50.206;9.998;2024-03-22T09:25:31;16.50;;;10.80;;
1350;SDS011;669;50.206;9.998;2024-03-22T09:27:57;15.60;;;10.30;;
1350;SDS011;669;50.206;9.998;2024-03-22T09:30:24;15.47;;;9.17;;
1350;SDS011;669;50.206;9.998;2024-03-22T09:32:52;17.20;;;11.70;;
1350;SDS011;669;50.206;9.998;2024-03-22T09:35:19;17.60;;;10.90;;
1350;SDS011;669;50.206;9.998;2024-03-22T09:37:45;14.27;;;10.30;;
1350;SDS011;669;50.206;9.998;2024-03-22T09:40:12;17.00;;;12.37;;
1350;SDS011;669;50.206;9.998;2024-03-22T09:42:38;15.27;;;10.70;;
1350;SDS011;669;50.206;9.998;2024-03-22T09:45:08;16.57;;;10.43;;
1350;SDS011;669;50.206;9.998;2024-03-22T09:47:36;16.20;;;10.77;;
1350;SDS011;669;50.206;9.998;2024-03-22T09:50:05;11.20;;;9.30;;
1350;SDS011;669;50.206;9.998;2024-03-22T09:52:32;11.37;;;9.00;;
1350;SDS011;669;50.206;9.998;2024-03-22T09:55:00;12.87;;;9.70;;
1350;SDS011;669;50.206;9.998;2024-03-22T09:57:30;11.43;;;10.00;;
1350;SDS011;669;50.206;9.998;2024-03-22T09:59:58;10.30;;;8.93;;
1350;SDS011;669;50.206;9.998;2024-03-22T10:02:24;12.40;;;10.53;;
1350;SDS011;669;50.206;9.998;2024-03-22T10:04:52;13.83;;;8.73;;
1350;SDS011;669;50.206;9.998;2024-03-22T10:07:20;11.60;;;9.17;;
1350;SDS011;669;50.206;9.998;2024-03-22T10:09:47;11.80;;;9.33;;
1350;SDS011;669;50.206;9.998;2024-03-22T10:12:12;10.17;;;8.50;;
1350;SDS011;669;50.206;9.998;2024-03-22T10:14:42;13.40;;;10.60;;
1350;SDS011;669;50.206;9.998;2024-03-22T10:17:09;12.53;;;9.37;;
1350;SDS011;669;50.206;9.998;2024-03-22T10:19:36;11.70;;;9.17;;
1350;SDS011;669;50.206;9.998;2024-03-22T10:22:02;10.43;;;8.70;;
1350;SDS011;669;50.206;9.998;2024-03-22T10:24:32;12.60;;;8.03;;
1350;SDS011;669;50.206;9.998;2024-03-22T10:26:58;9.20;;;7.43;;
1350;SDS011;669;50.206;9.998;2024-03-22T10:29:25;10.33;;;7.33;;
1350;SDS011;669;50.206;9.998;2024-03-22T10:31:52;12.80;;;10.10;;
1350;SDS011;669;50.206;9.998;2024-03-22T10:34:20;10.40;;;7.97;;
1350;SDS011;669;50.206;9.998;2024-03-22T10:36:46;11.37;;;8.80;;
1350;SDS011;669;50.206;9.998;2024-03-22T10:39:16;9.80;;;8.47;;
1350;SDS011;669;50.206;9.998;2024-03-22T10:41:44;10.23;;;8.73;;
1350;SDS011;669;50.206;9.998;2024-03-22T10:44:11;11.00;;;8.00;;
1350;SDS011;669;50.206;9.998;2024-03-22T10:46:38;8.27;;;7.47;;
1350;SDS011;669;50.206;9.998;2024-03-22T10:49:09;7.50;;;6.07;;
1350;SDS011;669;50.206;9.998;2024-03-22T10:51:40;9.30;;;6.10;;
1350;SDS011;669;50.206;9.998;2024-03-22T10:54:08;7.47;;;5.57;;
1350;SDS011;669;50.206;9.998;2024-03-22T10:56:35;11.07;;;6.67;;
1350;SDS011;669;50.206;9.998;2024-03-22T10:59:04;6.03;;;5.40;;
1350;SDS011;669;50.206;9.998;2024-03-22T11:01:31;7.00;;;5.80;;
1350;SDS011;669;50.206;9.998;2024-03-22T11:04:05;7.83;;;5.97;;
1350;SDS011;669;50.206;9.998;2024-03-22T11:06:31;5.37;;;4.60;;
1350;SDS011;669;50.206;9.998;2024-03-22T11:08:59;7.50;;;5.50;;
1350;SDS011;669;50.206;9.998;2024-03-22T11:11:25;5.20;;;4.80;;
1350;SDS011;669;50.206;9.998;2024-03-22T11:13:54;8.83;;;5.77;;
1350;SDS011;669;50.206;9.998;2024-03-22T11:16:22;7.07;;;4.73;;
1350;SDS011;669;50.206;9.998;2024-03-22T11:18:49;5.23;;;4.10;;
1350;SDS011;669;50.206;9.998;2024-03-22T11:21:15;5.53;;;4.27;;
1350;SDS011;669;50.206;9.998;2024-03-22T11:23:44;6.60;;;4.23;;
1350;SDS011;669;50.206;9.998;2024-03-22T11:26:11;3.87;;;3.57;;
1350;SDS011;669;50.206;9.998;2024-03-22T11:28:38;4.37;;;3.97;;
1350;SDS011;669;50.206;9.998;2024-03-22T11:31:04;5.00;;;3.90;;
1350;SDS011;669;50.206;9.998;2024-03-22T11:33:33;6.87;;;2.90;;
1350;SDS011;669;50.206;9.998;2024-03-22T11:35:59;4.67;;;4.13;;
1350;SDS011;669;50.206;9.998;2024-03-22T11:38:27;5.53;;;3.87;;
1350;SDS011;669;50.206;9.998;2024-03-22T11:40:53;3.53;;;3.13;;
1350;SDS011;669;50.206;9.998;2024-03-22T11:43:21;5.80;;;3.40;;
1350;SDS011;669;50.206;9.998;2024-03-22T11:45:47;4.13;;;3.57;;
1350;SDS011;669;50.206;9.998;2024-03-22T11:48:14;3.43;;;3.13;;
1350;SDS011;669;50.206;9.998;2024-03-22T11:50:43;4.73;;;4.23;;
1350;SDS011;669;50.206;9.998;2024-03-22T11:53:11;5.20;;;3.90;;
1350;SDS011;669;50.206;9.998;2024-03-22T11:55:37;7.57;;;4.60;;
1350;SDS011;669;50.206;9.998;2024-03-22T11:58:04;3.10;;;2.80;;
1350;SDS011;669;50.206;9.998;2024-03-22T12:00:30;6.13;;;4.40;;
1350;SDS011;669;50.206;9.998;2024-03-22T12:02:58;6.07;;;4.20;;
1350;SDS011;669;50.206;9.998;2024-03-22T12:05:24;4.10;;;3.70;;
1350;SDS011;669;50.206;9.998;2024-03-22T12:07:53;4.33;;;3.87;;
1350;SDS011;669;50.206;9.998;2024-03-22T12:10:19;4.00;;;3.70;;
1350;SDS011;669;50.206;9.998;2024-03-22T12:12:46;3.53;;;3.23;;
1350;SDS011;669;50.206;9.998;2024-03-22T12:15:12;4.23;;;3.50;;
1350;SDS011;669;50.206;9.998;2024-03-22T12:17:39;3.37;;;3.13;;
1350;SDS011;669;50.206;9.998;2024-03-22T12:20:06;3.10;;;2.53;;
1350;SDS011;669;50.206;9.998;2024-03-22T12:22:34;3.53;;;3.20;;
1350;SDS011;669;50.206;9.998;2024-03-22T12:25:02;4.17;;;3.60;;
1350;SDS011;669;50.206;9.998;2024-03-22T12:27:30;2.50;;;2.30;;
1350;SDS011;669;50.206;9.998;2024-03-22T12:29:56;7.93;;;4.17;;
1350;SDS011;669;50.206;9.998;2024-03-22T12:32:24;5.20;;;3.73;;
1350;SDS011;669;50.206;9.998;2024-03-22T12:34:50;4.93;;;3.77;;
1350;SDS011;669;50.206;9.998;2024-03-22T12:37:17;6.80;;;3.10;;
1350;SDS011;669;50.206;9.998;2024-03-22T12:39:43;6.30;;;4.07;;
1350;SDS011;669;50.206;9.998;2024-03-22T12:42:12;9.67;;;4.83;;
1350;SDS011;669;50.206;9.998;2024-03-22T12:44:38;5.27;;;4.23;;
1350;SDS011;669;50.206;9.998;2024-03-22T12:47:05;4.83;;;3.63;;
1350;SDS011;669;50.206;9.998;2024-03-22T12:49:31;5.73;;;3.80;;
1350;SDS011;669;50.206;9.998;2024-03-22T12:51:58;4.73;;;4.20;;
1350;SDS011;669;50.206;9.998;2024-03-22T12:54:24;6.17;;;4.50;;
1350;SDS011;669;50.206;9.998;2024-03-22T12:56:51;5.87;;;4.07;;
1350;SDS011;669;50.206;9.998;2024-03-22T12:59:19;4.83;;;4.43;;
1350;SDS011;669;50.206;9.998;2024-03-22T13:01:46;4.67;;;4.27;;
1350;SDS011;669;50.206;9.998;2024-03-22T13:04:12;6.37;;;4.20;;
1350;SDS011;669;50.206;9.998;2024-03-22T13:06:39;5.27;;;4.77;;
1350;SDS011;669;50.206;9.998;2024-03-22T13:09:05;7.43;;;4.40;;
1350;SDS011;669;50.206;9.998;2024-03-22T13:11:34;5.30;;;4.37;;
1350;SDS011;669;50.206;9.998;2024-03-22T13:14:00;3.53;;;2.90;;
1350;SDS011;669;50.206;9.998;2024-03-22T13:16:29;5.50;;;3.43;;
1350;SDS011;669;50.206;9.998;2024-03-22T13:18:55;6.60;;;3.73;;
1350;SDS011;669;50.206;9.998;2024-03-22T13:21:22;4.90;;;3.80;;
1350;SDS011;669;50.206;9.998;2024-03-22T13:23:48;7.27;;;3.57;;
1350;SDS011;669;50.206;9.998;2024-03-22T13:26:15;4.80;;;3.77;;
1350;SDS011;669;50.206;9.998;2024-03-22T13:28:40;4.17;;;3.50;;
1350;SDS011;669;50.206;9.998;2024-03-22T13:31:08;3.70;;;3.40;;
1350;SDS011;669;50.206;9.998;2024-03-22T13:33:36;7.27;;;4.70;;
1350;SDS011;669;50.206;9.998;2024-03-22T13:36:03;8.83;;;6.10;;
1350;SDS011;669;50.206;9.998;2024-03-22T13:38:29;6.70;;;5.30;;
1350;SDS011;669;50.206;9.998;2024-03-22T13:40:57;5.73;;;5.17;;
1350;SDS011;669;50.206;9.998;2024-03-22T13:43:25;6.83;;;5.30;;
1350;SDS011;669;50.206;9.998;2024-03-22T13:45:52;4.97;;;4.07;;
1350;SDS011;669;50.206;9.998;2024-03-22T13:48:20;5.03;;;4.53;;
1350;SDS011;669;50.206;9.998;2024-03-22T13:50:50;4.93;;;3.97;;
1350;SDS011;669;50.206;9.998;2024-03-22T13:53:17;5.20;;;3.80;;
1350;SDS011;669;50.206;9.998;2024-03-22T13:55:44;6.70;;;4.70;;
1350;SDS011;669;50.206;9.998;2024-03-22T13:58:11;7.10;;;4.07;;
1350;SDS011;669;50.206;9.998;2024-03-22T14:00:38;3.30;;;3.00;;
1350;SDS011;669;50.206;9.998;2024-03-22T14:03:04;6.27;;;4.70;;
1350;SDS011;669;50.206;9.998;2024-03-22T14:05:31;5.20;;;4.70;;
1350;SDS011;669;50.206;9.998;2024-03-22T14:07:59;5.93;;;4.67;;
1350;SDS011;669;50.206;9.998;2024-03-22T14:10:26;6.20;;;4.33;;
1350;SDS011;669;50.206;9.998;2024-03-22T14:12:53;6.13;;;4.90;;
1350;SDS011;669;50.206;9.998;2024-03-22T14:15:20;5.70;;;5.20;;
1350;SDS011;669;50.206;9.998;2024-03-22T14:17:46;5.63;;;4.73;;
1350;SDS011;669;50.206;9.998;2024-03-22T14:20:13;6.00;;;4.03;;
1350;SDS011;669;50.206;9.998;2024-03-22T14:22:39;6.20;;;5.30;;
1350;SDS011;669;50.206;9.998;2024-03-22T14:25:08;6.10;;;5.50;;
1350;SDS011;669;50.206;9.998;2024-03-22T14:27:35;10.97;;;5.50;;
1350;SDS011;669;50.206;9.998;2024-03-22T14:30:03;7.93;;;5.60;;
1350;SDS011;669;50.206;9.998;2024-03-22T14:32:31;7.30;;;5.93;;
1350;SDS011;669;50.206;9.998;2024-03-22T14:34:58;6.30;;;5.07;;
1350;SDS011;669;50.206;9.998;2024-03-22T14:37:24;7.10;;;5.10;;
1350;SDS011;669;50.206;9.998;2024-03-22T14:39:51;6.70;;;5.40;;
1350;SDS011;669;50.206;9.998;2024-03-22T14:42:19;10.60;;;6.60;;
1350;SDS011;669;50.206;9.998;2024-03-22T14:44:46;7.43;;;5.73;;
1350;SDS011;669;50.206;9.998;2024-03-22T14:47:12;7.50;;;6.27;;
1350;SDS011;669;50.206;9.998;2024-03-22T14:49:39;12.70;;;5.97;;
1350;SDS011;669;50.206;9.998;2024-03-22T14:52:05;36.53;;;13.70;;
1350;SDS011;669;50.206;9.998;2024-03-22T14:54:32;20.40;;;9.50;;
1350;SDS011;669;50.206;9.998;2024-03-22T14:56:58;8.73;;;5.43;;
1350;SDS011;669;50.206;9.998;2024-03-22T14:59:28;9.13;;;5.73;;
1350;SDS011;669;50.206;9.998;2024-03-22T15:01:54;7.40;;;5.47;;
1350;SDS011;669;50.206;9.998;2024-03-22T15:04:21;5.73;;;5.23;;
1350;SDS011;669;50.206;9.998;2024-03-22T15:06:48;8.50;;;5.97;;
1350;SDS011;669;50.206;9.998;2024-03-22T15:09:16;8.30;;;6.40;;
1350;SDS011;669;50.206;9.998;2024-03-22T15:11:43;8.97;;;7.23;;
1350;SDS011;669;50.206;9.998;2024-03-22T15:14:11;5.77;;;4.83;;
1350;SDS011;669;50.206;9.998;2024-03-22T15:16:38;9.40;;;5.10;;
1350;SDS011;669;50.206;9.998;2024-03-22T15:19:07;7.47;;;6.53;;
1350;SDS011;669;50.206;9.998;2024-03-22T15:21:33;10.20;;;6.27;;
1350;SDS011;669;50.206;9.998;2024-03-22T15:24:00;6.90;;;6.20;;